Nearby METAR Reports

 

KGRB - Ashwaubenon, Wisconsin, USA
Distance from station: NW 5mi, 8km
Updated: Sat, 27-May-2017 6:53am CDT
Mist, Clear
Mist, Clear
 Wind from calm
Wind: Calm
Temperature: 55°F , 13°C
Dew Point: 55°F , 13°C
Humidity: 100%
Barometer: 29.90 inHg , 1012.5 hPa
Summary: Mist
Clouds: Clear
Visibility: 5 miles , 8 km
2017/05/27 11:53 KGRB 271153Z 00000KT 5SM BR CLR 13/13 A2990 RMK AO2 SLP123 T01280128 10139 20100 53006
KATW - Appleton/Outagam, Wisconsin, USA
Distance from station: WSW 26mi, 42km
Updated: Sat, 27-May-2017 6:45am CDT
Partly cloudy
Partly cloudy
 Wind from varies
Wind: varies 5 mph , 7 km/h
Temperature: 55°F , 13°C
Dew Point: 55°F , 13°C
Humidity: 100%
Barometer: 29.89 inHg , 1012.2 hPa
Clouds: Partly cloudy
Visibility: 10 miles , 16 km
Cloud details: Partly cloudy 10000 ft
2017/05/27 11:45 KATW 271145Z VRB04KT 10SM SCT100 13/13 A2989
 
KMTW - Manitowac Muni, Wisconsin, USA
Distance from station: SE 29mi, 47km
Updated: Sat, 27-May-2017 6:56am CDT
Clear
Clear
 Wind from calm
Wind: Calm
Temperature: 54°F , 12°C
Dew Point: 50°F , 10°C
Humidity: 88%
Barometer: 29.92 inHg , 1013.2 hPa
Clouds: Clear
Visibility: 10 miles , 16 km
2017/05/27 11:56 KMTW 271156Z AUTO 00000KT 10SM CLR 12/10 A2992 RMK AO2 SLP152 7//// T01170100 10117 20078 53013
KOCQ - Oconto, Wisconsin, USA
Distance from station: NNE 30mi, 49km
Updated: Sat, 27-May-2017 6:35am CDT
Clear
Clear
 Wind from calm
Wind: Calm
Temperature: 52°F , 11°C
Dew Point: 52°F , 11°C
Humidity: 100%
Barometer: 29.88 inHg , 1011.9 hPa
Clouds: Clear
Visibility: 7 miles , 11 km
2017/05/27 11:35 KOCQ 271135Z AUTO 00000KT 7SM CLR 11/11 A2988 RMK AO1 T01090106
 
KEZS - Shawano Muni, Wisconsin, USA
Distance from station: NW 35mi, 56km
Updated: Sat, 27-May-2017 6:55am CDT
Clear
Clear
 Wind from calm
Wind: Calm
Temperature: 57°F , 14°C
Dew Point: 54°F , 12°C
Humidity: 88%
Barometer: 29.89 inHg , 1012.2 hPa
Clouds: Clear
Visibility: 7 miles , 11 km
2017/05/27 11:55 KEZS 271155Z AUTO 00000KT 7SM CLR 14/12 A2989 RMK AO2 T01350124 10147 20108
KCLI - Clintonville, Wisconsin, USA
Distance from station: WNW 36mi, 58km
Updated: Sat, 27-May-2017 6:55am CDT
Mist, Clear
Mist, Clear
 Wind from calm
Wind: Calm
Temperature: 54°F , 12°C
Dew Point: 52°F , 11°C
Humidity: 94%
Barometer: 29.89 inHg , 1012.2 hPa
Summary: Mist
Clouds: Clear
Visibility: 4 miles , 6 km
2017/05/27 11:55 KCLI 271155Z AUTO 00000KT 4SM BR CLR 12/11 A2989 RMK AO2
 
KOSH - Oshkosh, Wisconsin, USA
Distance from station: SW 41mi, 66km
Updated: Sat, 27-May-2017 6:53am CDT
Clear
Clear
 Wind from SSW
Wind: SSW 5 mph , 7 km/h
Temperature: 57°F , 14°C
Dew Point: 54°F , 12°C
Humidity: 88%
Barometer: 29.89 inHg , 1012.2 hPa
Clouds: Clear
Visibility: 10 miles , 16 km
2017/05/27 11:53 KOSH 271153Z 20004KT 10SM CLR 14/12 A2989 RMK AO2 SLP117 T01390117 10139 20089 51008
KSUE - Sturgeon Bay, Wisconsin, USA
Distance from station: NE 42mi, 68km
Updated: Sat, 27-May-2017 6:56am CDT
Clear
Clear
 Wind from SSW
Wind: SSW 3 mph , 6 km/h
Temperature: 55°F , 13°C
Dew Point: 52°F , 11°C
Humidity: 88%
Barometer: 29.91 inHg , 1012.9 hPa
Clouds: Clear
Visibility: 10 miles , 16 km
2017/05/27 11:56 KSUE 271156Z AUTO 21003KT 10SM CLR 13/11 A2991 RMK AO2 SLP148 7//// T01280111 10128 20083 53009
 
KSBM - Sheboygan, Wisconsin, USA
Distance from station: SSE 46mi, 75km
Updated: Sat, 27-May-2017 6:53am CDT
Mist, Clear
Mist, Clear
 Wind from WSW
Wind: WSW 3 mph , 6 km/h
Temperature: 54°F , 12°C
Dew Point: 54°F , 12°C
Humidity: 100%
Barometer: 29.92 inHg , 1013.2 hPa
Summary: Mist
Clouds: Clear
Visibility: 6 miles , 10 km
2017/05/27 11:53 KSBM 271153Z AUTO 24003KT 6SM BR CLR 12/12 A2992 RMK AO2 SLP132 T01170117 10117 20083 53015
KPCZ - Waupaca, Wisconsin, USA
Distance from station: W 48mi, 77km
Updated: Sat, 27-May-2017 6:55am CDT
Mist, Clear
Mist, Clear
 Wind from calm
Wind: Calm
Temperature: 55°F , 13°C
Dew Point: 55°F , 13°C
Humidity: 100%
Barometer: 29.90 inHg , 1012.5 hPa
Summary: Mist
Clouds: Clear
Visibility: 5 miles , 8 km
2017/05/27 11:55 KPCZ 271155Z AUTO 00000KT 5SM BR CLR 13/13 A2990 RMK AO2 T01300125 10135 20104